»·PEaware :: N2703F KHAF-17CL

N2703F :: KHAF-17CL

FLIGHT INFORMATION

Flight Status: Arrived
Operator: Privately registered:
United States
More flights under this callsign
Pilot: Angus M. (9315)
Aircraft: PIPER PA-22 TRI PACER/CARIBBEAN
(PA22)
More flights by this aircraft type
Origin: KHAF Half Moon Bay
United States
Destination: 17CL Las Trancas
United States
More flights between these airports :: More routes between these airports
Route:
File this flight plan on PilotEdge
Remarks: En route planning for SeaMax accquisition
Altitude:
(Current/Filed)
5,000ft
Speed:
(Current/Filed)
110kts
Departed: 30-Jul-16 01:50 PM
Arrived: 30-Jul-16 02:22 PM
Distance/Time
Traveled:
28nm/0:32
Distance/Time
To Go:
Arrived

Flight Plot

Page will automatically refresh every two minutes.


Map Options




Map Legend


Flown Route
Filed Route
Departure Airport
Arrival Airport
Navaid (VOR, NDB)
Fix

Horizontal Profiles

Position Reports

Time Latitude Longitude Heading Altitude Ground
Speed
30-Jul-16 13:27 37.515119 -122.497346 299 67ft 0kts
30-Jul-16 13:28 37.515119 -122.497346 299 67ft 0kts
30-Jul-16 13:29 37.515119 -122.497346 299 67ft 0kts
30-Jul-16 13:30 37.515119 -122.497346 299 67ft 0kts
30-Jul-16 13:31 37.515119 -122.497346 299 67ft 0kts
30-Jul-16 13:32 37.515119 -122.497346 299 67ft 0kts
30-Jul-16 13:33 37.515119 -122.497346 299 67ft 0kts
30-Jul-16 13:34 37.515119 -122.497346 299 67ft 0kts
30-Jul-16 13:35 37.515121 -122.497351 297 67ft 0kts
30-Jul-16 13:36 37.515121 -122.497351 297 67ft 0kts
30-Jul-16 13:37 37.515123 -122.497354 296 67ft 1kts
30-Jul-16 13:38 37.514519 -122.497836 255 67ft 7kts
30-Jul-16 13:39 37.515846 -122.500331 304 67ft 12kts
30-Jul-16 13:40 37.517372 -122.503142 314 67ft 15kts
30-Jul-16 13:41 37.519331 -122.505619 259 67ft 7kts
30-Jul-16 13:42 37.518433 -122.506742 188 67ft 5kts
30-Jul-16 13:43 37.516059 -122.504248 143 67ft 13kts
30-Jul-16 13:44 37.505097 -122.489864 138 641ft 68kts
30-Jul-16 13:45 37.494778 -122.469591 127 1530ft 73kts
30-Jul-16 13:46 37.484288 -122.448790 137 2389ft 72kts
30-Jul-16 13:47 37.471925 -122.428938 135 3190ft 75kts
30-Jul-16 13:48 37.463023 -122.407852 117 3998ft 71kts
30-Jul-16 13:49 37.455652 -122.385709 116 4660ft 79kts
30-Jul-16 13:50 37.441295 -122.360189 136 4843ft 108kts
30-Jul-16 13:51 37.419834 -122.335461 142 4925ft 115kts
30-Jul-16 13:52 37.396880 -122.313564 143 5160ft 102kts
30-Jul-16 13:53 37.374840 -122.295026 149 5189ft 107kts
30-Jul-16 13:54 37.350697 -122.277575 154 5145ft 113kts
30-Jul-16 13:55 37.320128 -122.277481 177 5084ft 117kts
30-Jul-16 13:56 37.288911 -122.273961 170 5024ft 120kts
30-Jul-16 13:57 37.255815 -122.270963 176 5001ft 121kts
30-Jul-16 13:58 37.222132 -122.272313 180 4989ft 122kts
30-Jul-16 13:59 37.188703 -122.271225 166 4977ft 120kts
30-Jul-16 14:00 37.156381 -122.262636 164 4958ft 120kts
30-Jul-16 14:01 37.123827 -122.254263 162 4940ft 121kts
30-Jul-16 14:02 37.093970 -122.257901 208 4184ft 122kts
30-Jul-16 14:03 37.072771 -122.286335 278 3171ft 124kts
30-Jul-16 14:04 37.095693 -122.298937 55 2155ft 110kts
30-Jul-16 14:05 37.088069 -122.276297 155 1461ft 110kts
30-Jul-16 14:06 37.069775 -122.293847 299 1017ft 92kts
30-Jul-16 14:07 37.084307 -122.290724 115 726ft 72kts
30-Jul-16 14:08 37.065847 -122.278160 112 628ft 53kts
30-Jul-16 14:09 37.080161 -122.272799 339 657ft 87kts
30-Jul-16 14:10 37.094768 -122.286848 321 564ft 95kts
30-Jul-16 14:11 37.086264 -122.303372 148 766ft 64kts
30-Jul-16 14:12 37.078023 -122.280771 77 433ft 69kts
30-Jul-16 14:13 37.091214 -122.278778 286 236ft 68kts
30-Jul-16 14:14 37.079462 -122.281535 117 339ft 52kts
30-Jul-16 14:15 37.089546 -122.273929 15 128ft 42kts
30-Jul-16 14:16 37.089843 -122.273310 178 128ft 7kts
30-Jul-16 14:17 37.088131 -122.273023 211 128ft 0kts

Navigation Log

Ident Type
Flight plan parsing failed, navigation log unavailable